sensor_id;sensor_type;location;lat;lon;timestamp;P1;durP1;ratioP1;P2;durP2;ratioP2
15990;SDS011;8100;50.994;4.538;2023-05-10T00:01:03;6.90;;;3.88;;
15990;SDS011;8100;50.994;4.538;2023-05-10T00:03:50;5.18;;;3.35;;
15990;SDS011;8100;50.994;4.538;2023-05-10T00:06:38;6.93;;;3.85;;
15990;SDS011;8100;50.994;4.538;2023-05-10T00:09:25;4.95;;;3.45;;
15990;SDS011;8100;50.994;4.538;2023-05-10T00:12:12;5.00;;;3.33;;
15990;SDS011;8100;50.994;4.538;2023-05-10T00:15:01;5.20;;;3.67;;
15990;SDS011;8100;50.994;4.538;2023-05-10T00:17:49;6.18;;;3.63;;
15990;SDS011;8100;50.994;4.538;2023-05-10T00:20:36;4.38;;;3.20;;
15990;SDS011;8100;50.994;4.538;2023-05-10T00:23:23;7.72;;;4.05;;
15990;SDS011;8100;50.994;4.538;2023-05-10T00:26:11;6.25;;;3.40;;
15990;SDS011;8100;50.994;4.538;2023-05-10T00:28:58;5.38;;;3.22;;
15990;SDS011;8100;50.994;4.538;2023-05-10T00:31:47;5.65;;;3.42;;
15990;SDS011;8100;50.994;4.538;2023-05-10T00:34:34;7.20;;;3.03;;
15990;SDS011;8100;50.994;4.538;2023-05-10T00:37:21;7.70;;;3.60;;
15990;SDS011;8100;50.994;4.538;2023-05-10T00:40:09;6.13;;;3.17;;
15990;SDS011;8100;50.994;4.538;2023-05-10T00:42:57;7.60;;;3.88;;
15990;SDS011;8100;50.994;4.538;2023-05-10T00:45:44;4.82;;;3.38;;
15990;SDS011;8100;50.994;4.538;2023-05-10T00:48:33;8.15;;;3.20;;
15990;SDS011;8100;50.994;4.538;2023-05-10T00:51:21;6.65;;;4.00;;
15990;SDS011;8100;50.994;4.538;2023-05-10T00:54:09;5.95;;;3.95;;
15990;SDS011;8100;50.994;4.538;2023-05-10T00:56:57;6.28;;;3.78;;
15990;SDS011;8100;50.994;4.538;2023-05-10T00:59:45;7.97;;;4.20;;
15990;SDS011;8100;50.994;4.538;2023-05-10T01:02:33;7.72;;;4.18;;
15990;SDS011;8100;50.994;4.538;2023-05-10T01:05:22;7.63;;;3.85;;
15990;SDS011;8100;50.994;4.538;2023-05-10T01:08:09;6.75;;;3.67;;
15990;SDS011;8100;50.994;4.538;2023-05-10T01:10:57;8.20;;;4.13;;
15990;SDS011;8100;50.994;4.538;2023-05-10T01:13:45;8.75;;;3.97;;
15990;SDS011;8100;50.994;4.538;2023-05-10T01:16:38;8.10;;;4.22;;
15990;SDS011;8100;50.994;4.538;2023-05-10T01:19:28;7.35;;;3.42;;
15990;SDS011;8100;50.994;4.538;2023-05-10T01:22:25;8.82;;;4.78;;
15990;SDS011;8100;50.994;4.538;2023-05-10T01:25:32;7.60;;;4.63;;
15990;SDS011;8100;50.994;4.538;2023-05-10T01:32:14;6.20;;;3.88;;
15990;SDS011;8100;50.994;4.538;2023-05-10T01:35:06;8.15;;;4.75;;
15990;SDS011;8100;50.994;4.538;2023-05-10T01:37:58;9.35;;;4.68;;
15990;SDS011;8100;50.994;4.538;2023-05-10T01:40:52;9.48;;;4.60;;
15990;SDS011;8100;50.994;4.538;2023-05-10T01:43:50;10.95;;;4.60;;
15990;SDS011;8100;50.994;4.538;2023-05-10T01:46:42;6.35;;;3.97;;
15990;SDS011;8100;50.994;4.538;2023-05-10T01:49:34;7.68;;;4.47;;
15990;SDS011;8100;50.994;4.538;2023-05-10T01:52:26;8.82;;;4.53;;
15990;SDS011;8100;50.994;4.538;2023-05-10T01:55:18;9.15;;;4.68;;
15990;SDS011;8100;50.994;4.538;2023-05-10T01:58:08;9.10;;;4.75;;
15990;SDS011;8100;50.994;4.538;2023-05-10T02:00:59;7.28;;;4.50;;
15990;SDS011;8100;50.994;4.538;2023-05-10T02:03:49;7.80;;;4.65;;
15990;SDS011;8100;50.994;4.538;2023-05-10T02:06:39;7.57;;;4.65;;
15990;SDS011;8100;50.994;4.538;2023-05-10T02:09:29;7.53;;;4.60;;
15990;SDS011;8100;50.994;4.538;2023-05-10T02:12:18;9.57;;;5.03;;
15990;SDS011;8100;50.994;4.538;2023-05-10T02:15:07;8.57;;;5.22;;
15990;SDS011;8100;50.994;4.538;2023-05-10T02:17:55;7.78;;;5.15;;
15990;SDS011;8100;50.994;4.538;2023-05-10T02:20:44;6.57;;;4.80;;
15990;SDS011;8100;50.994;4.538;2023-05-10T02:23:35;11.38;;;5.20;;
15990;SDS011;8100;50.994;4.538;2023-05-10T02:26:23;6.80;;;4.90;;
15990;SDS011;8100;50.994;4.538;2023-05-10T02:29:12;7.03;;;4.85;;
15990;SDS011;8100;50.994;4.538;2023-05-10T02:32:00;9.57;;;5.50;;
15990;SDS011;8100;50.994;4.538;2023-05-10T02:34:49;7.60;;;4.80;;
15990;SDS011;8100;50.994;4.538;2023-05-10T02:37:37;8.27;;;4.90;;
15990;SDS011;8100;50.994;4.538;2023-05-10T02:40:27;9.48;;;5.18;;
15990;SDS011;8100;50.994;4.538;2023-05-10T02:43:16;7.32;;;4.93;;
15990;SDS011;8100;50.994;4.538;2023-05-10T02:46:05;9.13;;;5.30;;
15990;SDS011;8100;50.994;4.538;2023-05-10T02:48:52;11.05;;;6.07;;
15990;SDS011;8100;50.994;4.538;2023-05-10T02:51:40;8.55;;;5.40;;
15990;SDS011;8100;50.994;4.538;2023-05-10T02:54:31;8.43;;;5.13;;
15990;SDS011;8100;50.994;4.538;2023-05-10T02:57:26;9.10;;;4.85;;
15990;SDS011;8100;50.994;4.538;2023-05-10T03:00:16;8.50;;;5.32;;
15990;SDS011;8100;50.994;4.538;2023-05-10T03:03:03;8.90;;;5.47;;
15990;SDS011;8100;50.994;4.538;2023-05-10T03:05:50;9.95;;;5.50;;
15990;SDS011;8100;50.994;4.538;2023-05-10T03:08:41;10.13;;;5.50;;
15990;SDS011;8100;50.994;4.538;2023-05-10T03:11:32;9.02;;;5.82;;
15990;SDS011;8100;50.994;4.538;2023-05-10T03:14:34;8.80;;;5.32;;
15990;SDS011;8100;50.994;4.538;2023-05-10T03:17:35;10.70;;;6.45;;
15990;SDS011;8100;50.994;4.538;2023-05-10T03:20:29;11.38;;;6.13;;
15990;SDS011;8100;50.994;4.538;2023-05-10T03:23:21;11.00;;;7.07;;
15990;SDS011;8100;50.994;4.538;2023-05-10T03:26:17;10.73;;;5.93;;
15990;SDS011;8100;50.994;4.538;2023-05-10T03:29:11;10.40;;;6.53;;
15990;SDS011;8100;50.994;4.538;2023-05-10T03:32:01;13.30;;;7.82;;
15990;SDS011;8100;50.994;4.538;2023-05-10T03:34:48;12.50;;;7.60;;
15990;SDS011;8100;50.994;4.538;2023-05-10T03:37:36;13.90;;;8.30;;
15990;SDS011;8100;50.994;4.538;2023-05-10T03:40:23;14.48;;;8.07;;
15990;SDS011;8100;50.994;4.538;2023-05-10T03:43:11;12.68;;;7.95;;
15990;SDS011;8100;50.994;4.538;2023-05-10T03:45:58;13.07;;;7.75;;
15990;SDS011;8100;50.994;4.538;2023-05-10T03:48:49;12.10;;;7.28;;
15990;SDS011;8100;50.994;4.538;2023-05-10T03:51:37;15.55;;;8.88;;
15990;SDS011;8100;50.994;4.538;2023-05-10T03:54:24;16.77;;;9.10;;
15990;SDS011;8100;50.994;4.538;2023-05-10T03:57:11;15.10;;;8.27;;
15990;SDS011;8100;50.994;4.538;2023-05-10T03:59:59;13.70;;;8.65;;
15990;SDS011;8100;50.994;4.538;2023-05-10T04:02:46;14.70;;;8.20;;
15990;SDS011;8100;50.994;4.538;2023-05-10T04:05:35;15.48;;;9.02;;
15990;SDS011;8100;50.994;4.538;2023-05-10T04:08:22;14.10;;;8.60;;
15990;SDS011;8100;50.994;4.538;2023-05-10T04:11:10;12.65;;;8.32;;
15990;SDS011;8100;50.994;4.538;2023-05-10T04:13:58;15.38;;;8.98;;
15990;SDS011;8100;50.994;4.538;2023-05-10T04:16:45;18.05;;;9.20;;
15990;SDS011;8100;50.994;4.538;2023-05-10T04:19:33;16.58;;;9.07;;
15990;SDS011;8100;50.994;4.538;2023-05-10T04:22:22;16.77;;;9.65;;
15990;SDS011;8100;50.994;4.538;2023-05-10T04:25:09;14.73;;;9.00;;
15990;SDS011;8100;50.994;4.538;2023-05-10T04:27:57;18.23;;;9.18;;
15990;SDS011;8100;50.994;4.538;2023-05-10T04:30:44;13.57;;;9.10;;
15990;SDS011;8100;50.994;4.538;2023-05-10T04:33:32;19.85;;;10.60;;
15990;SDS011;8100;50.994;4.538;2023-05-10T04:36:19;21.65;;;11.52;;
15990;SDS011;8100;50.994;4.538;2023-05-10T04:39:08;18.17;;;10.35;;
15990;SDS011;8100;50.994;4.538;2023-05-10T04:41:55;20.77;;;11.00;;
15990;SDS011;8100;50.994;4.538;2023-05-10T04:44:42;20.90;;;11.13;;
15990;SDS011;8100;50.994;4.538;2023-05-10T04:47:30;18.42;;;10.05;;
15990;SDS011;8100;50.994;4.538;2023-05-10T04:50:18;18.17;;;10.70;;
15990;SDS011;8100;50.994;4.538;2023-05-10T04:53:05;18.92;;;10.63;;
15990;SDS011;8100;50.994;4.538;2023-05-10T04:55:53;20.15;;;10.73;;
15990;SDS011;8100;50.994;4.538;2023-05-10T04:58:41;17.17;;;10.27;;
15990;SDS011;8100;50.994;4.538;2023-05-10T05:01:28;18.05;;;10.55;;
15990;SDS011;8100;50.994;4.538;2023-05-10T05:04:15;18.85;;;11.00;;
15990;SDS011;8100;50.994;4.538;2023-05-10T05:07:03;18.55;;;10.43;;
15990;SDS011;8100;50.994;4.538;2023-05-10T05:09:50;16.85;;;9.68;;
15990;SDS011;8100;50.994;4.538;2023-05-10T05:12:39;16.38;;;9.50;;
15990;SDS011;8100;50.994;4.538;2023-05-10T05:15:26;16.05;;;9.68;;
15990;SDS011;8100;50.994;4.538;2023-05-10T05:18:13;19.05;;;10.23;;
15990;SDS011;8100;50.994;4.538;2023-05-10T05:21:01;18.23;;;10.88;;
15990;SDS011;8100;50.994;4.538;2023-05-10T05:23:48;19.33;;;10.07;;
15990;SDS011;8100;50.994;4.538;2023-05-10T05:26:35;18.00;;;10.25;;
15990;SDS011;8100;50.994;4.538;2023-05-10T05:29:24;17.17;;;10.13;;
15990;SDS011;8100;50.994;4.538;2023-05-10T05:32:11;15.48;;;9.80;;
15990;SDS011;8100;50.994;4.538;2023-05-10T05:34:59;16.42;;;9.73;;
15990;SDS011;8100;50.994;4.538;2023-05-10T05:37:46;17.95;;;9.70;;
15990;SDS011;8100;50.994;4.538;2023-05-10T05:40:33;16.02;;;9.50;;
15990;SDS011;8100;50.994;4.538;2023-05-10T05:43:21;17.98;;;9.63;;
15990;SDS011;8100;50.994;4.538;2023-05-10T05:46:09;15.80;;;9.43;;
15990;SDS011;8100;50.994;4.538;2023-05-10T05:48:57;17.60;;;9.80;;
15990;SDS011;8100;50.994;4.538;2023-05-10T05:51:44;21.08;;;10.18;;
15990;SDS011;8100;50.994;4.538;2023-05-10T05:54:31;17.92;;;9.57;;
15990;SDS011;8100;50.994;4.538;2023-05-10T05:57:19;16.15;;;10.02;;
15990;SDS011;8100;50.994;4.538;2023-05-10T06:00:07;15.13;;;9.05;;
15990;SDS011;8100;50.994;4.538;2023-05-10T06:02:57;15.88;;;9.88;;
15990;SDS011;8100;50.994;4.538;2023-05-10T06:05:44;19.42;;;10.02;;
15990;SDS011;8100;50.994;4.538;2023-05-10T06:08:31;17.50;;;10.13;;
15990;SDS011;8100;50.994;4.538;2023-05-10T06:11:19;17.23;;;9.85;;
15990;SDS011;8100;50.994;4.538;2023-05-10T06:14:06;19.13;;;10.73;;
15990;SDS011;8100;50.994;4.538;2023-05-10T06:16:54;17.00;;;9.55;;
15990;SDS011;8100;50.994;4.538;2023-05-10T06:19:43;18.13;;;9.50;;
15990;SDS011;8100;50.994;4.538;2023-05-10T06:22:30;16.60;;;9.38;;
15990;SDS011;8100;50.994;4.538;2023-05-10T06:25:18;17.42;;;9.45;;
15990;SDS011;8100;50.994;4.538;2023-05-10T06:28:05;19.73;;;11.02;;
15990;SDS011;8100;50.994;4.538;2023-05-10T06:30:52;15.63;;;9.65;;
15990;SDS011;8100;50.994;4.538;2023-05-10T06:33:39;16.95;;;9.63;;
15990;SDS011;8100;50.994;4.538;2023-05-10T06:36:28;16.63;;;9.88;;
15990;SDS011;8100;50.994;4.538;2023-05-10T06:39:16;17.85;;;9.88;;
15990;SDS011;8100;50.994;4.538;2023-05-10T06:42:03;16.98;;;9.68;;
15990;SDS011;8100;50.994;4.538;2023-05-10T06:44:51;15.57;;;9.30;;
15990;SDS011;8100;50.994;4.538;2023-05-10T06:47:38;14.70;;;9.63;;
15990;SDS011;8100;50.994;4.538;2023-05-10T06:50:25;14.40;;;9.23;;
15990;SDS011;8100;50.994;4.538;2023-05-10T06:53:14;16.38;;;9.13;;
15990;SDS011;8100;50.994;4.538;2023-05-10T06:56:02;13.95;;;9.13;;
15990;SDS011;8100;50.994;4.538;2023-05-10T06:58:49;14.55;;;9.18;;
15990;SDS011;8100;50.994;4.538;2023-05-10T07:01:37;16.90;;;8.75;;
15990;SDS011;8100;50.994;4.538;2023-05-10T07:04:24;14.25;;;7.75;;
15990;SDS011;8100;50.994;4.538;2023-05-10T07:07:12;14.38;;;8.23;;
15990;SDS011;8100;50.994;4.538;2023-05-10T07:10:01;13.48;;;8.38;;
15990;SDS011;8100;50.994;4.538;2023-05-10T07:12:49;14.52;;;8.65;;
15990;SDS011;8100;50.994;4.538;2023-05-10T07:15:36;15.80;;;9.05;;
15990;SDS011;8100;50.994;4.538;2023-05-10T07:18:23;14.50;;;8.23;;
15990;SDS011;8100;50.994;4.538;2023-05-10T07:21:11;14.85;;;9.25;;
15990;SDS011;8100;50.994;4.538;2023-05-10T07:23:58;13.95;;;8.80;;
15990;SDS011;8100;50.994;4.538;2023-05-10T07:26:47;15.88;;;9.25;;
15990;SDS011;8100;50.994;4.538;2023-05-10T07:29:35;16.30;;;9.90;;
15990;SDS011;8100;50.994;4.538;2023-05-10T07:32:22;18.35;;;9.90;;
15990;SDS011;8100;50.994;4.538;2023-05-10T07:35:10;15.90;;;9.65;;
15990;SDS011;8100;50.994;4.538;2023-05-10T07:37:57;16.88;;;9.43;;
15990;SDS011;8100;50.994;4.538;2023-05-10T07:40:44;17.58;;;10.43;;
15990;SDS011;8100;50.994;4.538;2023-05-10T07:43:33;18.73;;;9.80;;
15990;SDS011;8100;50.994;4.538;2023-05-10T07:46:20;15.82;;;9.55;;
15990;SDS011;8100;50.994;4.538;2023-05-10T07:49:07;15.80;;;9.75;;
15990;SDS011;8100;50.994;4.538;2023-05-10T07:51:55;20.52;;;10.20;;
15990;SDS011;8100;50.994;4.538;2023-05-10T07:54:42;17.92;;;9.85;;
15990;SDS011;8100;50.994;4.538;2023-05-10T07:57:30;16.17;;;10.07;;
15990;SDS011;8100;50.994;4.538;2023-05-10T08:00:19;16.08;;;9.32;;
15990;SDS011;8100;50.994;4.538;2023-05-10T08:03:07;16.27;;;10.05;;
15990;SDS011;8100;50.994;4.538;2023-05-10T08:05:54;16.10;;;9.00;;
15990;SDS011;8100;50.994;4.538;2023-05-10T08:08:41;15.45;;;9.77;;
15990;SDS011;8100;50.994;4.538;2023-05-10T08:11:28;14.75;;;8.75;;
15990;SDS011;8100;50.994;4.538;2023-05-10T08:14:16;17.02;;;9.73;;
15990;SDS011;8100;50.994;4.538;2023-05-10T08:17:05;16.77;;;9.05;;
15990;SDS011;8100;50.994;4.538;2023-05-10T08:19:53;18.10;;;8.93;;
15990;SDS011;8100;50.994;4.538;2023-05-10T08:22:40;16.83;;;8.73;;
15990;SDS011;8100;50.994;4.538;2023-05-10T08:25:28;15.80;;;8.00;;
15990;SDS011;8100;50.994;4.538;2023-05-10T08:28:16;14.43;;;8.30;;
15990;SDS011;8100;50.994;4.538;2023-05-10T08:31:04;15.43;;;8.73;;
15990;SDS011;8100;50.994;4.538;2023-05-10T08:33:53;15.55;;;8.43;;
15990;SDS011;8100;50.994;4.538;2023-05-10T08:36:40;15.80;;;8.60;;
15990;SDS011;8100;50.994;4.538;2023-05-10T08:39:27;17.52;;;8.90;;
15990;SDS011;8100;50.994;4.538;2023-05-10T08:42:15;17.40;;;8.90;;
15990;SDS011;8100;50.994;4.538;2023-05-10T08:45:07;15.80;;;7.85;;
15990;SDS011;8100;50.994;4.538;2023-05-10T08:47:56;13.50;;;7.20;;
15990;SDS011;8100;50.994;4.538;2023-05-10T08:50:46;16.30;;;7.97;;
15990;SDS011;8100;50.994;4.538;2023-05-10T08:53:34;13.48;;;7.20;;
15990;SDS011;8100;50.994;4.538;2023-05-10T08:56:23;13.77;;;7.22;;
15990;SDS011;8100;50.994;4.538;2023-05-10T08:59:10;12.52;;;6.57;;
15990;SDS011;8100;50.994;4.538;2023-05-10T09:01:59;13.45;;;5.80;;
15990;SDS011;8100;50.994;4.538;2023-05-10T09:04:48;14.05;;;6.10;;
15990;SDS011;8100;50.994;4.538;2023-05-10T09:07:36;12.55;;;5.85;;
15990;SDS011;8100;50.994;4.538;2023-05-10T09:10:24;11.48;;;5.60;;
15990;SDS011;8100;50.994;4.538;2023-05-10T09:13:12;10.55;;;5.70;;
15990;SDS011;8100;50.994;4.538;2023-05-10T09:16:01;11.60;;;5.95;;
15990;SDS011;8100;50.994;4.538;2023-05-10T09:18:49;10.60;;;6.18;;
15990;SDS011;8100;50.994;4.538;2023-05-10T09:21:37;8.98;;;5.45;;
15990;SDS011;8100;50.994;4.538;2023-05-10T09:24:26;10.65;;;5.90;;
15990;SDS011;8100;50.994;4.538;2023-05-10T09:27:13;9.57;;;5.35;;
15990;SDS011;8100;50.994;4.538;2023-05-10T09:30:00;10.80;;;5.60;;
15990;SDS011;8100;50.994;4.538;2023-05-10T09:32:48;10.70;;;5.50;;
15990;SDS011;8100;50.994;4.538;2023-05-10T09:35:36;9.95;;;6.15;;
15990;SDS011;8100;50.994;4.538;2023-05-10T09:38:25;10.35;;;5.40;;
15990;SDS011;8100;50.994;4.538;2023-05-10T09:41:17;11.43;;;5.65;;
15990;SDS011;8100;50.994;4.538;2023-05-10T09:44:05;10.27;;;5.32;;
15990;SDS011;8100;50.994;4.538;2023-05-10T09:46:54;11.50;;;5.40;;
15990;SDS011;8100;50.994;4.538;2023-05-10T09:49:41;11.77;;;5.53;;
15990;SDS011;8100;50.994;4.538;2023-05-10T09:52:29;11.93;;;5.72;;
15990;SDS011;8100;50.994;4.538;2023-05-10T09:55:18;9.45;;;5.32;;
15990;SDS011;8100;50.994;4.538;2023-05-10T09:58:08;9.30;;;4.95;;
15990;SDS011;8100;50.994;4.538;2023-05-10T10:00:55;8.90;;;5.05;;
15990;SDS011;8100;50.994;4.538;2023-05-10T10:03:43;8.57;;;4.78;;
15990;SDS011;8100;50.994;4.538;2023-05-10T10:06:37;9.57;;;5.45;;
15990;SDS011;8100;50.994;4.538;2023-05-10T10:09:25;8.43;;;4.85;;
15990;SDS011;8100;50.994;4.538;2023-05-10T10:12:13;8.65;;;4.68;;
15990;SDS011;8100;50.994;4.538;2023-05-10T10:15:02;10.43;;;5.28;;
15990;SDS011;8100;50.994;4.538;2023-05-10T10:17:51;8.85;;;4.82;;
15990;SDS011;8100;50.994;4.538;2023-05-10T10:20:39;10.05;;;4.97;;
15990;SDS011;8100;50.994;4.538;2023-05-10T10:23:27;9.07;;;5.00;;
15990;SDS011;8100;50.994;4.538;2023-05-10T10:26:14;8.02;;;4.55;;
15990;SDS011;8100;50.994;4.538;2023-05-10T10:29:08;7.88;;;5.03;;
15990;SDS011;8100;50.994;4.538;2023-05-10T10:32:08;8.73;;;5.05;;
15990;SDS011;8100;50.994;4.538;2023-05-10T10:35:04;7.70;;;4.63;;
15990;SDS011;8100;50.994;4.538;2023-05-10T10:37:53;8.68;;;4.63;;
15990;SDS011;8100;50.994;4.538;2023-05-10T10:40:40;6.43;;;4.05;;
15990;SDS011;8100;50.994;4.538;2023-05-10T10:43:28;8.05;;;4.05;;
15990;SDS011;8100;50.994;4.538;2023-05-10T10:46:16;7.43;;;4.13;;
15990;SDS011;8100;50.994;4.538;2023-05-10T10:49:10;7.18;;;4.35;;
15990;SDS011;8100;50.994;4.538;2023-05-10T10:52:13;8.68;;;4.30;;
15990;SDS011;8100;50.994;4.538;2023-05-10T10:55:02;6.90;;;4.20;;
15990;SDS011;8100;50.994;4.538;2023-05-10T10:57:52;7.40;;;4.15;;
15990;SDS011;8100;50.994;4.538;2023-05-10T11:00:45;7.38;;;4.32;;
15990;SDS011;8100;50.994;4.538;2023-05-10T11:03:33;7.45;;;4.32;;
15990;SDS011;8100;50.994;4.538;2023-05-10T11:06:30;6.85;;;3.97;;
15990;SDS011;8100;50.994;4.538;2023-05-10T11:09:18;7.13;;;4.18;;
15990;SDS011;8100;50.994;4.538;2023-05-10T11:12:07;8.98;;;3.97;;
15990;SDS011;8100;50.994;4.538;2023-05-10T11:14:56;8.20;;;3.97;;
15990;SDS011;8100;50.994;4.538;2023-05-10T11:17:44;7.00;;;4.22;;
15990;SDS011;8100;50.994;4.538;2023-05-10T11:20:38;7.10;;;4.32;;
15990;SDS011;8100;50.994;4.538;2023-05-10T11:23:30;5.57;;;3.70;;
15990;SDS011;8100;50.994;4.538;2023-05-10T11:26:18;6.13;;;3.67;;
15990;SDS011;8100;50.994;4.538;2023-05-10T11:29:08;5.60;;;3.60;;
15990;SDS011;8100;50.994;4.538;2023-05-10T11:31:56;5.90;;;3.55;;
15990;SDS011;8100;50.994;4.538;2023-05-10T11:34:46;6.25;;;3.90;;
15990;SDS011;8100;50.994;4.538;2023-05-10T11:37:34;6.63;;;4.10;;
15990;SDS011;8100;50.994;4.538;2023-05-10T11:40:23;5.32;;;3.88;;
15990;SDS011;8100;50.994;4.538;2023-05-10T11:43:11;7.53;;;3.75;;
15990;SDS011;8100;50.994;4.538;2023-05-10T11:45:59;7.00;;;4.05;;
15990;SDS011;8100;50.994;4.538;2023-05-10T11:48:46;6.45;;;4.25;;
15990;SDS011;8100;50.994;4.538;2023-05-10T11:51:35;6.03;;;4.18;;
15990;SDS011;8100;50.994;4.538;2023-05-10T11:54:24;4.38;;;3.45;;
15990;SDS011;8100;50.994;4.538;2023-05-10T11:57:13;6.30;;;4.03;;
15990;SDS011;8100;50.994;4.538;2023-05-10T12:00:00;5.63;;;3.40;;
15990;SDS011;8100;50.994;4.538;2023-05-10T12:02:49;5.93;;;3.72;;
15990;SDS011;8100;50.994;4.538;2023-05-10T12:05:36;6.07;;;3.65;;
15990;SDS011;8100;50.994;4.538;2023-05-10T12:08:27;5.32;;;3.50;;
15990;SDS011;8100;50.994;4.538;2023-05-10T12:11:16;7.35;;;4.30;;
15990;SDS011;8100;50.994;4.538;2023-05-10T12:14:05;9.20;;;4.07;;
15990;SDS011;8100;50.994;4.538;2023-05-10T12:16:52;7.03;;;4.00;;
15990;SDS011;8100;50.994;4.538;2023-05-10T12:19:40;7.82;;;3.67;;
15990;SDS011;8100;50.994;4.538;2023-05-10T12:22:29;7.45;;;3.60;;
15990;SDS011;8100;50.994;4.538;2023-05-10T12:25:16;6.13;;;4.07;;
15990;SDS011;8100;50.994;4.538;2023-05-10T12:28:04;5.47;;;3.40;;
15990;SDS011;8100;50.994;4.538;2023-05-10T12:30:54;6.28;;;3.95;;
15990;SDS011;8100;50.994;4.538;2023-05-10T12:33:42;7.63;;;3.95;;
15990;SDS011;8100;50.994;4.538;2023-05-10T12:36:30;5.28;;;3.97;;
15990;SDS011;8100;50.994;4.538;2023-05-10T12:39:18;7.38;;;3.75;;
15990;SDS011;8100;50.994;4.538;2023-05-10T12:42:05;5.32;;;3.22;;
15990;SDS011;8100;50.994;4.538;2023-05-10T12:44:54;6.68;;;3.63;;
15990;SDS011;8100;50.994;4.538;2023-05-10T12:47:43;6.18;;;3.88;;
15990;SDS011;8100;50.994;4.538;2023-05-10T12:50:30;5.50;;;3.38;;
15990;SDS011;8100;50.994;4.538;2023-05-10T12:53:18;6.80;;;3.90;;
15990;SDS011;8100;50.994;4.538;2023-05-10T12:56:05;6.10;;;3.88;;
15990;SDS011;8100;50.994;4.538;2023-05-10T12:58:53;7.30;;;4.18;;
15990;SDS011;8100;50.994;4.538;2023-05-10T13:01:40;6.28;;;4.18;;
15990;SDS011;8100;50.994;4.538;2023-05-10T13:04:29;8.40;;;4.72;;
15990;SDS011;8100;50.994;4.538;2023-05-10T13:07:16;5.65;;;3.95;;
15990;SDS011;8100;50.994;4.538;2023-05-10T13:10:04;6.75;;;4.20;;
15990;SDS011;8100;50.994;4.538;2023-05-10T13:12:52;8.68;;;4.57;;
15990;SDS011;8100;50.994;4.538;2023-05-10T13:15:40;5.28;;;3.58;;
15990;SDS011;8100;50.994;4.538;2023-05-10T13:18:27;6.07;;;3.67;;
15990;SDS011;8100;50.994;4.538;2023-05-10T13:21:16;4.93;;;3.42;;
15990;SDS011;8100;50.994;4.538;2023-05-10T13:24:03;5.70;;;3.55;;
15990;SDS011;8100;50.994;4.538;2023-05-10T13:26:51;5.38;;;3.65;;
15990;SDS011;8100;50.994;4.538;2023-05-10T13:29:38;9.38;;;3.80;;
15990;SDS011;8100;50.994;4.538;2023-05-10T13:32:25;5.72;;;4.00;;
15990;SDS011;8100;50.994;4.538;2023-05-10T13:35:13;6.95;;;3.95;;
15990;SDS011;8100;50.994;4.538;2023-05-10T13:38:02;5.70;;;3.72;;
15990;SDS011;8100;50.994;4.538;2023-05-10T13:40:49;6.88;;;3.85;;
15990;SDS011;8100;50.994;4.538;2023-05-10T13:43:38;6.57;;;4.38;;
15990;SDS011;8100;50.994;4.538;2023-05-10T13:46:25;6.47;;;3.97;;
15990;SDS011;8100;50.994;4.538;2023-05-10T13:49:12;6.57;;;3.80;;
15990;SDS011;8100;50.994;4.538;2023-05-10T13:52:00;7.63;;;4.30;;
15990;SDS011;8100;50.994;4.538;2023-05-10T13:54:53;7.35;;;3.95;;
15990;SDS011;8100;50.994;4.538;2023-05-10T13:57:41;9.80;;;4.22;;
15990;SDS011;8100;50.994;4.538;2023-05-10T14:00:28;7.35;;;3.78;;
15990;SDS011;8100;50.994;4.538;2023-05-10T14:03:16;7.38;;;3.83;;
15990;SDS011;8100;50.994;4.538;2023-05-10T14:06:03;9.25;;;3.85;;
15990;SDS011;8100;50.994;4.538;2023-05-10T14:08:52;7.30;;;4.50;;
15990;SDS011;8100;50.994;4.538;2023-05-10T14:11:41;9.45;;;4.30;;
15990;SDS011;8100;50.994;4.538;2023-05-10T14:14:30;6.78;;;4.40;;
15990;SDS011;8100;50.994;4.538;2023-05-10T14:17:17;10.20;;;4.65;;
15990;SDS011;8100;50.994;4.538;2023-05-10T14:20:05;7.07;;;4.38;;
15990;SDS011;8100;50.994;4.538;2023-05-10T14:22:53;7.35;;;4.60;;
15990;SDS011;8100;50.994;4.538;2023-05-10T14:25:41;7.95;;;5.00;;
15990;SDS011;8100;50.994;4.538;2023-05-10T14:28:30;8.93;;;5.07;;
15990;SDS011;8100;50.994;4.538;2023-05-10T14:31:17;7.00;;;4.63;;
15990;SDS011;8100;50.994;4.538;2023-05-10T14:34:05;9.68;;;4.95;;
15990;SDS011;8100;50.994;4.538;2023-05-10T14:36:53;9.27;;;5.60;;
15990;SDS011;8100;50.994;4.538;2023-05-10T14:39:40;10.73;;;6.50;;
15990;SDS011;8100;50.994;4.538;2023-05-10T14:42:27;11.27;;;6.72;;
15990;SDS011;8100;50.994;4.538;2023-05-10T14:45:16;12.23;;;7.65;;
15990;SDS011;8100;50.994;4.538;2023-05-10T14:48:04;11.60;;;7.05;;
15990;SDS011;8100;50.994;4.538;2023-05-10T14:50:52;11.75;;;7.28;;
15990;SDS011;8100;50.994;4.538;2023-05-10T14:53:40;10.77;;;6.90;;
15990;SDS011;8100;50.994;4.538;2023-05-10T14:56:27;9.93;;;6.13;;
15990;SDS011;8100;50.994;4.538;2023-05-10T14:59:14;10.57;;;6.25;;
15990;SDS011;8100;50.994;4.538;2023-05-10T15:02:03;10.23;;;6.57;;
15990;SDS011;8100;50.994;4.538;2023-05-10T15:04:50;12.45;;;6.88;;
15990;SDS011;8100;50.994;4.538;2023-05-10T15:07:38;10.65;;;6.47;;
15990;SDS011;8100;50.994;4.538;2023-05-10T15:10:25;12.25;;;6.47;;
15990;SDS011;8100;50.994;4.538;2023-05-10T15:13:12;12.30;;;6.80;;
15990;SDS011;8100;50.994;4.538;2023-05-10T15:16:00;12.02;;;6.63;;
15990;SDS011;8100;50.994;4.538;2023-05-10T15:18:49;8.43;;;5.18;;
15990;SDS011;8100;50.994;4.538;2023-05-10T15:21:36;8.80;;;4.70;;
15990;SDS011;8100;50.994;4.538;2023-05-10T15:24:24;7.80;;;4.90;;
15990;SDS011;8100;50.994;4.538;2023-05-10T15:27:11;6.78;;;4.85;;
15990;SDS011;8100;50.994;4.538;2023-05-10T15:29:59;8.57;;;5.30;;
15990;SDS011;8100;50.994;4.538;2023-05-10T15:32:46;9.05;;;5.30;;
15990;SDS011;8100;50.994;4.538;2023-05-10T15:35:35;6.60;;;4.72;;
15990;SDS011;8100;50.994;4.538;2023-05-10T15:38:25;8.25;;;4.70;;
15990;SDS011;8100;50.994;4.538;2023-05-10T15:41:12;9.93;;;5.35;;
15990;SDS011;8100;50.994;4.538;2023-05-10T15:43:59;6.95;;;4.60;;
15990;SDS011;8100;50.994;4.538;2023-05-10T15:46:46;9.85;;;5.10;;
15990;SDS011;8100;50.994;4.538;2023-05-10T15:49:34;7.97;;;5.25;;
15990;SDS011;8100;50.994;4.538;2023-05-10T15:52:22;8.55;;;5.07;;
15990;SDS011;8100;50.994;4.538;2023-05-10T15:55:10;10.73;;;5.30;;
15990;SDS011;8100;50.994;4.538;2023-05-10T15:57:58;11.80;;;5.35;;
15990;SDS011;8100;50.994;4.538;2023-05-10T16:00:45;27.90;;;10.57;;
15990;SDS011;8100;50.994;4.538;2023-05-10T16:03:32;9.27;;;5.25;;
15990;SDS011;8100;50.994;4.538;2023-05-10T16:06:20;8.77;;;5.32;;
15990;SDS011;8100;50.994;4.538;2023-05-10T16:09:08;9.57;;;5.10;;
15990;SDS011;8100;50.994;4.538;2023-05-10T16:11:56;9.30;;;5.25;;
15990;SDS011;8100;50.994;4.538;2023-05-10T16:14:43;11.52;;;5.35;;
15990;SDS011;8100;50.994;4.538;2023-05-10T16:17:30;7.15;;;4.45;;
15990;SDS011;8100;50.994;4.538;2023-05-10T16:20:18;7.20;;;4.60;;
15990;SDS011;8100;50.994;4.538;2023-05-10T16:23:05;10.63;;;5.70;;
15990;SDS011;8100;50.994;4.538;2023-05-10T16:25:54;8.80;;;4.22;;
15990;SDS011;8100;50.994;4.538;2023-05-10T16:28:42;5.70;;;3.83;;
15990;SDS011;8100;50.994;4.538;2023-05-10T16:31:29;5.82;;;3.95;;
15990;SDS011;8100;50.994;4.538;2023-05-10T16:34:16;5.88;;;3.47;;
15990;SDS011;8100;50.994;4.538;2023-05-10T16:37:08;6.95;;;4.10;;
15990;SDS011;8100;50.994;4.538;2023-05-10T16:39:56;7.38;;;4.47;;
15990;SDS011;8100;50.994;4.538;2023-05-10T16:42:44;6.70;;;4.15;;
15990;SDS011;8100;50.994;4.538;2023-05-10T16:45:32;8.98;;;4.88;;
15990;SDS011;8100;50.994;4.538;2023-05-10T16:48:19;9.30;;;5.88;;
15990;SDS011;8100;50.994;4.538;2023-05-10T16:51:06;8.27;;;4.65;;
15990;SDS011;8100;50.994;4.538;2023-05-10T16:53:54;8.27;;;5.05;;
15990;SDS011;8100;50.994;4.538;2023-05-10T16:56:41;7.10;;;4.18;;
15990;SDS011;8100;50.994;4.538;2023-05-10T16:59:30;6.88;;;4.18;;
15990;SDS011;8100;50.994;4.538;2023-05-10T17:02:17;7.00;;;4.38;;
15990;SDS011;8100;50.994;4.538;2023-05-10T17:05:05;6.35;;;3.90;;